createdAt,value
2023-05-04T00:01:56.844Z,20.30
2023-05-04T00:06:59.649Z,20.20
2023-05-04T00:12:03.436Z,20.20
2023-05-04T00:17:08.096Z,20.10
2023-05-04T00:22:11.094Z,20.00
2023-05-04T00:27:14.029Z,20.10
2023-05-04T00:32:18.156Z,20.10
2023-05-04T00:37:21.272Z,20.00
2023-05-04T00:42:24.144Z,19.90
2023-05-04T00:47:29.806Z,19.90
2023-05-04T00:52:32.892Z,19.90
2023-05-04T00:57:36.002Z,19.80
2023-05-04T01:02:40.345Z,19.80
2023-05-04T01:07:48.885Z,19.70
2023-05-04T01:12:53.828Z,19.70
2023-05-04T01:17:57.982Z,19.70
2023-05-04T01:23:02.526Z,19.70
2023-05-04T01:28:09.750Z,19.60
2023-05-04T01:33:13.349Z,19.60
2023-05-04T01:38:17.666Z,19.60
2023-05-04T01:43:20.537Z,19.50
2023-05-04T01:48:23.380Z,19.40
2023-05-04T01:53:27.806Z,19.40
2023-05-04T01:58:30.696Z,19.30
2023-05-04T02:03:34.367Z,19.30
2023-05-04T02:08:39.065Z,19.30
2023-05-04T02:13:41.931Z,19.40
2023-05-04T02:18:44.769Z,19.30
2023-05-04T02:23:49.046Z,19.20
2023-05-04T02:28:51.902Z,19.10
2023-05-04T02:33:55.325Z,19.10
2023-05-04T02:39:00.494Z,19.00
2023-05-04T02:44:04.473Z,19.00
2023-05-04T02:49:08.066Z,19.10
2023-05-04T02:54:12.248Z,19.10
2023-05-04T02:59:15.108Z,18.90
2023-05-04T03:04:17.944Z,19.00
2023-05-04T03:09:22.337Z,18.90
2023-05-04T03:14:25.181Z,18.90
2023-05-04T03:19:28.019Z,18.90
2023-05-04T03:24:32.238Z,18.90
2023-05-04T03:29:35.076Z,18.70
2023-05-04T03:34:38.005Z,18.60
2023-05-04T03:39:42.161Z,18.60
2023-05-04T03:44:44.955Z,18.60
2023-05-04T03:49:47.885Z,18.60
2023-05-04T03:54:53.291Z,18.50
2023-05-04T03:59:57.958Z,18.50
2023-05-04T04:05:01.120Z,18.40
2023-05-04T04:10:06.235Z,16.80
2023-05-04T04:15:10.056Z,14.40
2023-05-04T04:20:13.966Z,15.00
2023-05-04T04:25:18.182Z,15.70
2023-05-04T04:30:21.768Z,15.40
2023-05-04T04:35:24.686Z,15.10
2023-05-04T04:40:28.903Z,15.50
2023-05-04T04:45:33.723Z,15.20
2023-05-04T04:50:39.820Z,15.40
2023-05-04T04:55:44.003Z,15.20
2023-05-04T05:00:47.580Z,15.10
2023-05-04T05:05:50.543Z,15.10
2023-05-04T05:10:54.698Z,14.80
2023-05-04T05:15:57.515Z,15.20
2023-05-04T05:21:00.738Z,15.60
2023-05-04T05:26:04.991Z,16.90
2023-05-04T05:31:08.046Z,17.40
2023-05-04T05:36:11.049Z,17.60
2023-05-04T05:41:16.003Z,17.90
2023-05-04T05:46:19.291Z,17.80
2023-05-04T05:51:22.184Z,18.10
2023-05-04T05:56:26.425Z,18.20
2023-05-04T06:01:29.284Z,18.50
2023-05-04T06:06:32.124Z,18.60
2023-05-04T06:11:36.386Z,19.00
2023-05-04T06:16:39.329Z,19.20
2023-05-04T06:21:42.254Z,19.10
2023-05-04T06:26:46.594Z,19.20
2023-05-04T06:31:49.512Z,19.30
2023-05-04T06:36:52.351Z,19.90
2023-05-04T06:41:57.132Z,20.40
2023-05-04T06:47:00.035Z,20.60
2023-05-04T06:52:02.864Z,20.80
2023-05-04T06:57:07.080Z,21.00
2023-05-04T07:02:09.908Z,21.20
2023-05-04T07:07:12.798Z,21.30
2023-05-04T07:12:17.195Z,21.50
2023-05-04T07:17:21.901Z,21.70
2023-05-04T07:22:24.929Z,21.90
2023-05-04T07:27:29.129Z,22.10
2023-05-04T07:32:32.042Z,22.20
2023-05-04T07:37:34.986Z,22.40
2023-05-04T07:42:39.678Z,22.50
2023-05-04T07:47:42.562Z,22.40
2023-05-04T07:52:47.779Z,22.50
2023-05-04T07:57:52.032Z,22.60
2023-05-04T08:02:54.883Z,22.60
2023-05-04T08:07:57.732Z,22.60
2023-05-04T08:13:02.038Z,22.70
2023-05-04T08:18:05.027Z,22.80
2023-05-04T08:23:08.294Z,22.80
2023-05-04T08:28:12.513Z,23.00
2023-05-04T08:33:15.934Z,22.90
2023-05-04T08:38:18.731Z,23.10
2023-05-04T08:43:25.552Z,23.20
2023-05-04T08:48:28.537Z,23.20
2023-05-04T08:53:32.419Z,23.20
2023-05-04T08:58:39.492Z,23.50
2023-05-04T09:03:43.041Z,23.50
2023-05-04T09:08:46.306Z,23.60
2023-05-04T09:13:50.895Z,23.70
2023-05-04T09:18:53.690Z,23.90
2023-05-04T09:23:57.662Z,23.90
2023-05-04T09:29:13.481Z,23.90
2023-05-04T09:34:17.043Z,24.00
2023-05-04T09:39:21.539Z,24.00
2023-05-04T09:44:29.589Z,24.10
2023-05-04T09:49:33.610Z,24.20
2023-05-04T09:54:39.091Z,24.30
2023-05-04T09:59:43.808Z,24.20
2023-05-04T10:04:47.514Z,24.30
2023-05-04T10:09:51.264Z,24.40
2023-05-04T10:14:57.185Z,24.40
2023-05-04T10:20:13.068Z,24.30
2023-05-04T10:25:54.900Z,24.50
2023-05-04T10:30:59.706Z,24.40
2023-05-04T10:36:03.037Z,24.50
2023-05-04T10:41:16.144Z,24.50
2023-05-04T10:46:23.278Z,24.50
2023-05-04T10:51:38.920Z,24.40
2023-05-04T10:56:49.453Z,24.40
2023-05-04T11:01:53.848Z,24.20
2023-05-04T11:06:57.678Z,24.30
2023-05-04T11:12:00.841Z,24.50
2023-05-04T11:17:26.106Z,24.30
2023-05-04T11:22:33.624Z,23.60
2023-05-04T11:27:36.503Z,23.90
2023-05-04T11:32:42.904Z,24.20
2023-05-04T11:37:46.645Z,24.40
2023-05-04T11:42:50.425Z,24.60
2023-05-04T11:47:57.537Z,24.80
2023-05-04T11:53:08.392Z,24.70
2023-05-04T11:58:12.358Z,24.80
2023-05-04T12:03:17.726Z,24.90
2023-05-04T12:08:26.033Z,25.10
2023-05-04T12:13:30.195Z,25.10
2023-05-04T12:18:34.332Z,25.10
2023-05-04T12:23:38.064Z,25.00
2023-05-04T12:28:42.041Z,25.10
2023-05-04T12:33:46.536Z,25.10
2023-05-04T12:38:49.385Z,25.00
2023-05-04T12:43:52.179Z,24.70
2023-05-04T12:48:56.411Z,24.50
2023-05-04T12:53:59.323Z,24.80
2023-05-04T12:59:03.492Z,24.70
2023-05-04T13:04:07.995Z,24.50
2023-05-04T13:09:11.715Z,24.70
2023-05-04T13:14:15.105Z,24.80
2023-05-04T13:19:19.324Z,24.80
2023-05-04T13:24:22.169Z,24.80
2023-05-04T13:29:25.197Z,24.90
2023-05-04T13:34:29.387Z,25.00
2023-05-04T13:39:40.867Z,25.00
2023-05-04T13:44:45.657Z,25.10
2023-05-04T13:49:50.965Z,25.00
2023-05-04T13:54:54.167Z,25.20
2023-05-04T14:00:06.317Z,25.40
2023-05-04T14:05:11.564Z,25.50
2023-05-04T14:10:14.450Z,25.50
2023-05-04T14:15:21.222Z,25.40
2023-05-04T14:20:25.547Z,25.70
2023-05-04T14:25:28.390Z,26.00
2023-05-04T14:30:33.601Z,25.80
2023-05-04T14:35:39.656Z,25.90
2023-05-04T14:40:42.531Z,26.00
2023-05-04T14:45:45.469Z,26.40
2023-05-04T14:50:49.720Z,26.40
2023-05-04T14:55:52.685Z,26.70
2023-05-04T15:00:55.597Z,26.90
2023-05-04T15:05:59.826Z,27.10
2023-05-04T15:11:02.775Z,28.20
2023-05-04T15:16:08.375Z,30.60
2023-05-04T15:21:12.809Z,32.30
2023-05-04T15:26:15.642Z,33.40
2023-05-04T15:31:18.918Z,34.30
2023-05-04T15:36:24.360Z,34.60
2023-05-04T15:41:27.489Z,34.70
2023-05-04T15:46:30.360Z,35.00
2023-05-04T15:51:34.618Z,34.80
2023-05-04T15:56:37.520Z,35.20
2023-05-04T16:01:40.399Z,34.80
2023-05-04T16:06:44.730Z,32.80
2023-05-04T16:11:47.516Z,32.60
2023-05-04T16:16:50.434Z,30.30
2023-05-04T16:21:55.364Z,29.60
2023-05-04T16:26:59.999Z,28.70
2023-05-04T16:32:03.402Z,28.20
2023-05-04T16:37:10.230Z,28.00
2023-05-04T16:42:15.238Z,28.00
2023-05-04T16:47:18.174Z,27.90
2023-05-04T16:52:22.721Z,27.50
2023-05-04T16:57:25.519Z,27.20
2023-05-04T17:02:28.419Z,27.00
2023-05-04T17:07:32.838Z,26.80
2023-05-04T17:12:35.938Z,26.70
2023-05-04T17:17:38.851Z,26.70
2023-05-04T17:22:43.275Z,26.70
2023-05-04T17:27:46.154Z,26.60
2023-05-04T17:32:49.472Z,26.60
2023-05-04T17:37:56.132Z,26.40
2023-05-04T17:43:01.341Z,26.30
2023-05-04T17:48:04.416Z,26.30
2023-05-04T17:53:08.636Z,26.30
2023-05-04T17:58:11.506Z,26.30
2023-05-04T18:03:14.413Z,26.20
2023-05-04T18:08:18.748Z,26.10
2023-05-04T18:13:22.087Z,26.10
2023-05-04T18:18:25.064Z,26.00
2023-05-04T18:23:29.278Z,25.80
2023-05-04T18:28:32.188Z,25.80
2023-05-04T18:33:35.468Z,25.70
2023-05-04T18:38:39.705Z,25.70
2023-05-04T18:43:42.496Z,25.70
2023-05-04T18:48:45.375Z,25.60
2023-05-04T18:53:50.077Z,25.60
2023-05-04T18:58:53.054Z,25.60
2023-05-04T19:03:55.879Z,25.50
2023-05-04T19:09:00.385Z,25.40
2023-05-04T19:14:03.221Z,25.30
2023-05-04T19:19:06.153Z,25.30
2023-05-04T19:24:11.238Z,25.20
2023-05-04T19:29:14.072Z,25.30
2023-05-04T19:34:17.852Z,25.20
2023-05-04T19:39:22.426Z,25.20
2023-05-04T19:44:25.340Z,25.20
2023-05-04T19:49:28.137Z,25.10
2023-05-04T19:54:32.313Z,25.10
2023-05-04T19:59:35.660Z,25.10
2023-05-04T20:04:38.484Z,25.10
2023-05-04T20:09:42.667Z,25.10
2023-05-04T20:14:45.482Z,25.10
2023-05-04T20:19:48.316Z,25.10
2023-05-04T20:24:52.543Z,25.00
2023-05-04T20:29:55.402Z,24.90
2023-05-04T20:34:58.262Z,24.90
2023-05-04T20:40:02.549Z,24.90
2023-05-04T20:45:06.570Z,24.90
2023-05-04T20:50:12.044Z,24.80
2023-05-04T20:55:16.529Z,24.90
2023-05-04T21:00:19.953Z,24.90
2023-05-04T21:05:22.791Z,24.90
2023-05-04T21:10:26.933Z,24.90
2023-05-04T21:15:29.761Z,24.90
2023-05-04T21:20:32.911Z,24.80
2023-05-04T21:25:37.123Z,24.80
2023-05-04T21:30:41.786Z,24.80
2023-05-04T21:35:44.710Z,24.90
2023-05-04T21:40:48.874Z,24.80
2023-05-04T21:45:51.737Z,24.70
2023-05-04T21:50:54.914Z,24.80
2023-05-04T21:55:59.414Z,24.80
2023-05-04T22:01:02.660Z,24.80
2023-05-04T22:06:07.502Z,24.70
2023-05-04T22:11:12.042Z,24.70
2023-05-04T22:16:15.312Z,24.70
2023-05-04T22:21:18.556Z,24.70
2023-05-04T22:26:23.860Z,24.70
2023-05-04T22:31:27.143Z,24.70
2023-05-04T22:36:30.463Z,24.70
2023-05-04T22:41:35.378Z,24.70
2023-05-04T22:46:38.571Z,24.60
2023-05-04T22:51:41.770Z,24.70
2023-05-04T22:56:46.308Z,24.60
2023-05-04T23:01:50.178Z,24.70
2023-05-04T23:06:53.439Z,24.60
2023-05-04T23:11:58.121Z,24.70
2023-05-04T23:17:01.578Z,24.60
2023-05-04T23:22:04.881Z,24.70
2023-05-04T23:27:09.825Z,24.60
2023-05-04T23:32:12.988Z,24.60
2023-05-04T23:37:16.245Z,24.60
2023-05-04T23:42:20.825Z,24.60
2023-05-04T23:47:24.051Z,24.60
2023-05-04T23:52:27.197Z,24.60
2023-05-04T23:57:31.763Z,24.60
